Terminal Aerodrome Forecast
Issued by NWS

Home | Current Version | Previous Version | Text Only | Print | Product List | Glossary On
Versions: 1 2 3 4 5 6 7 8 9 10 11 12 13
000
FTUS42 KILM 182300
TAFCRE
TAF
KCRE 182331Z 1900/1924 04010KT 5SM -RA OVC020
      TEMPO 1901/1904 3SM RA OVC015
     FM190400 05011KT 3SM RA BR OVC007
     FM191500 03012G18KT 6SM -RA BKN007 OVC015=

USA.gov is the U.S. government's official web portal to all federal, state and local government web resources and services.